AXY47E LEPA-LPPT
Flight info
| Callsign | AXY47E |
|---|---|
| Flight time | N/A |
| Altitude | 37000 |
| Route | EPAMA N733 VLC/N0373F130 N733 CJN N975 CCS DCT UPULO |
| Aircraft | A346/H-SDE2E3FGHIJ3J4J5M1RWXY/LB1D1 |
Departure
| Time | 2026-05-06 15:38 |
|---|---|
| Airport | Palma de Mallorca Airport (LEPA) |
Arrival
| Time | N/A |
|---|---|
| Airport | Lisbon Humberto Delgado Airport (LPPT) |
| Time | Latitude | Longitude | Altitude | Speed | Heading |
|---|---|---|---|---|---|
| 2026-05-06 15:15 | 39.54236 | 2.72800 | 38 ft | 0 kts | 198° |
| 2026-05-06 15:33 | 39.54232 | 2.72798 | 38 ft | 1 kts | 195° |
| 2026-05-06 15:34 | 39.54218 | 2.72800 | 37 ft | 3 kts | 159° |
| 2026-05-06 15:34 | 39.54202 | 2.72826 | 38 ft | 5 kts | 105° |
| 2026-05-06 15:35 | 39.54194 | 2.72892 | 38 ft | 2 kts | 105° |
| 2026-05-06 15:35 | 39.54186 | 2.72924 | 38 ft | 5 kts | 109° |
| 2026-05-06 15:35 | 39.54175 | 2.72965 | 38 ft | 0 kts | 110° |
| 2026-05-06 15:36 | 39.54175 | 2.72966 | 38 ft | 1 kts | 110° |
| 2026-05-06 15:36 | 39.54160 | 2.73029 | 38 ft | 15 kts | 102° |
| 2026-05-06 15:36 | 39.54149 | 2.73173 | 38 ft | 17 kts | 84° |
| 2026-05-06 15:36 | 39.54197 | 2.73319 | 38 ft | 21 kts | 59° |
| 2026-05-06 15:37 | 39.54379 | 2.73705 | 39 ft | 81 kts | 58° |
| 2026-05-06 15:37 | 39.54775 | 2.74542 | 39 ft | 135 kts | 58° |
| 2026-05-06 15:37 | 39.55350 | 2.75757 | 47 ft | 178 kts | 58° |
| 2026-05-06 15:37 | 39.56023 | 2.77182 | 472 ft | 187 kts | 58° |
| 2026-05-06 15:38 | 39.56718 | 2.78637 | 1054 ft | 191 kts | 58° |
| 2026-05-06 15:38 | 39.57422 | 2.80127 | 1650 ft | 196 kts | 59° |
| 2026-05-06 15:38 | 39.58149 | 2.81674 | 2076 ft | 207 kts | 59° |
| 2026-05-06 15:38 | 39.58918 | 2.83320 | 2367 ft | 226 kts | 59° |
| 2026-05-06 15:39 | 39.59768 | 2.85150 | 2752 ft | 243 kts | 59° |
| 2026-05-06 15:39 | 39.60646 | 2.87051 | 3445 ft | 247 kts | 59° |
| 2026-05-06 15:39 | 39.61533 | 2.88985 | 4183 ft | 251 kts | 59° |
| 2026-05-06 15:39 | 39.62419 | 2.90951 | 4950 ft | 254 kts | 58° |
| 2026-05-06 15:40 | 39.63518 | 2.92759 | 5673 ft | 256 kts | 36° |
| 2026-05-06 15:40 | 39.65135 | 2.93610 | 6441 ft | 252 kts | 0° |
| 2026-05-06 15:40 | 39.66861 | 2.93159 | 6968 ft | 261 kts | 330° |
| 2026-05-06 15:40 | 39.68316 | 2.91664 | 7418 ft | 274 kts | 305° |
| 2026-05-06 15:41 | 39.69060 | 2.89389 | 8030 ft | 279 kts | 274° |
| 2026-05-06 15:41 | 39.69011 | 2.86898 | 9061 ft | 274 kts | 264° |
| 2026-05-06 15:41 | 39.68801 | 2.84433 | 9981 ft | 275 kts | 263° |
| 2026-05-06 15:41 | 39.68591 | 2.81926 | 10608 ft | 285 kts | 264° |
| 2026-05-06 15:42 | 39.68400 | 2.79324 | 11008 ft | 301 kts | 264° |
| 2026-05-06 15:42 | 39.68218 | 2.76525 | 11377 ft | 319 kts | 265° |
| 2026-05-06 15:42 | 39.68043 | 2.73563 | 11733 ft | 337 kts | 265° |
| 2026-05-06 15:42 | 39.67867 | 2.70447 | 12083 ft | 355 kts | 265° |
| 2026-05-06 15:43 | 39.67689 | 2.67170 | 12548 ft | 368 kts | 265° |
| 2026-05-06 15:43 | 39.67511 | 2.63825 | 13308 ft | 371 kts | 265° |
| 2026-05-06 15:43 | 39.67337 | 2.60465 | 13785 ft | 373 kts | 265° |
| 2026-05-06 15:43 | 39.67163 | 2.57092 | 13923 ft | 373 kts | 265° |
| 2026-05-06 15:44 | 39.66987 | 2.53727 | 13918 ft | 373 kts | 265° |
| 2026-05-06 15:44 | 39.66809 | 2.50351 | 13922 ft | 373 kts | 265° |
| 2026-05-06 15:44 | 39.66630 | 2.46982 | 13935 ft | 373 kts | 265° |
| 2026-05-06 15:44 | 39.66451 | 2.43622 | 13924 ft | 373 kts | 265° |
| 2026-05-06 15:45 | 39.66270 | 2.40262 | 13930 ft | 373 kts | 265° |
| 2026-05-06 15:45 | 39.66088 | 2.36894 | 13930 ft | 373 kts | 265° |
| 2026-05-06 15:45 | 39.65908 | 2.33578 | 13928 ft | 373 kts | 265° |
| 2026-05-06 15:45 | 39.65721 | 2.30167 | 13936 ft | 375 kts | 265° |
| 2026-05-06 15:46 | 39.65532 | 2.26746 | 14355 ft | 382 kts | 265° |
| 2026-05-06 15:46 | 39.65346 | 2.23373 | 15305 ft | 377 kts | 265° |
| 2026-05-06 15:46 | 39.65159 | 2.19975 | 16198 ft | 377 kts | 265° |
| 2026-05-06 15:46 | 39.64970 | 2.16559 | 16909 ft | 381 kts | 265° |
| 2026-05-06 15:47 | 39.64777 | 2.13109 | 17623 ft | 384 kts | 264° |
| 2026-05-06 15:47 | 39.64580 | 2.09629 | 18320 ft | 388 kts | 264° |
| 2026-05-06 15:47 | 39.64380 | 2.06111 | 18945 ft | 390 kts | 264° |
| 2026-05-06 15:47 | 39.64178 | 2.02575 | 19574 ft | 393 kts | 264° |
| 2026-05-06 15:48 | 39.63974 | 1.99020 | 20205 ft | 396 kts | 264° |
| 2026-05-06 15:48 | 39.63767 | 1.95439 | 20835 ft | 398 kts | 264° |
| 2026-05-06 15:48 | 39.63558 | 1.91832 | 21449 ft | 401 kts | 264° |
| 2026-05-06 15:48 | 39.63348 | 1.88251 | 22061 ft | 404 kts | 264° |
| 2026-05-06 15:49 | 39.63131 | 1.84560 | 22664 ft | 407 kts | 264° |
| 2026-05-06 15:49 | 39.62914 | 1.80885 | 23247 ft | 411 kts | 264° |
| 2026-05-06 15:49 | 39.62694 | 1.77152 | 23766 ft | 414 kts | 264° |
| 2026-05-06 15:49 | 39.62472 | 1.73416 | 24262 ft | 416 kts | 264° |
| 2026-05-06 15:50 | 39.62247 | 1.69659 | 24779 ft | 418 kts | 264° |
| 2026-05-06 15:50 | 39.62094 | 1.67109 | 25127 ft | 419 kts | 264° |
| 2026-05-06 15:50 | 39.61866 | 1.63328 | 25642 ft | 421 kts | 263° |
| 2026-05-06 15:50 | 39.61648 | 1.59743 | 26110 ft | 423 kts | 263° |
| 2026-05-06 15:51 | 39.61406 | 1.55770 | 26638 ft | 425 kts | 263° |
| 2026-05-06 15:51 | 39.61174 | 1.52003 | 27121 ft | 427 kts | 263° |
| 2026-05-06 15:51 | 39.60951 | 1.48394 | 27577 ft | 429 kts | 263° |
| 2026-05-06 15:51 | 39.60694 | 1.44258 | 28103 ft | 431 kts | 263° |
| 2026-05-06 15:52 | 39.60450 | 1.40363 | 28577 ft | 433 kts | 263° |
| 2026-05-06 15:52 | 39.60211 | 1.36453 | 29185 ft | 431 kts | 263° |
| 2026-05-06 15:52 | 39.59996 | 1.32616 | 29936 ft | 427 kts | 263° |
| 2026-05-06 15:52 | 39.59787 | 1.28794 | 30587 ft | 423 kts | 263° |
| 2026-05-06 15:53 | 39.59578 | 1.24996 | 31204 ft | 420 kts | 263° |
| 2026-05-06 15:53 | 39.59368 | 1.21229 | 31798 ft | 417 kts | 263° |
| 2026-05-06 15:53 | 39.59157 | 1.17492 | 32379 ft | 414 kts | 263° |
| 2026-05-06 15:53 | 39.58946 | 1.13769 | 32978 ft | 411 kts | 263° |
| 2026-05-06 15:54 | 39.58735 | 1.10077 | 33589 ft | 408 kts | 263° |
| 2026-05-06 15:54 | 39.58525 | 1.06412 | 34170 ft | 404 kts | 263° |
| 2026-05-06 15:54 | 39.58314 | 1.02784 | 34603 ft | 403 kts | 263° |
| 2026-05-06 15:54 | 39.58102 | 0.99159 | 34925 ft | 404 kts | 263° |
| 2026-05-06 15:55 | 39.57890 | 0.95551 | 35197 ft | 405 kts | 263° |
| 2026-05-06 15:55 | 39.57674 | 0.91893 | 35467 ft | 407 kts | 263° |
| 2026-05-06 15:55 | 39.57456 | 0.88217 | 35687 ft | 410 kts | 263° |
| 2026-05-06 15:55 | 39.57237 | 0.84523 | 35912 ft | 412 kts | 263° |
| 2026-05-06 15:56 | 39.57015 | 0.80802 | 36147 ft | 414 kts | 263° |
| 2026-05-06 15:56 | 39.56790 | 0.77058 | 36384 ft | 416 kts | 263° |
| 2026-05-06 15:56 | 39.56565 | 0.73313 | 36633 ft | 417 kts | 263° |
| 2026-05-06 15:56 | 39.56336 | 0.69552 | 36864 ft | 419 kts | 263° |
| 2026-05-06 15:57 | 39.55873 | 0.61979 | 36920 ft | 421 kts | 263° |
| 2026-05-06 15:57 | 39.55404 | 0.54389 | 36922 ft | 422 kts | 263° |
| 2026-05-06 15:58 | 39.54929 | 0.46793 | 36926 ft | 422 kts | 263° |
| 2026-05-06 15:58 | 39.54451 | 0.39208 | 36926 ft | 422 kts | 263° |
| 2026-05-06 15:59 | 39.53968 | 0.31653 | 36926 ft | 422 kts | 263° |
| 2026-05-06 15:59 | 39.53477 | 0.24063 | 36921 ft | 422 kts | 263° |
| 2026-05-06 16:00 | 39.52982 | 0.16486 | 36922 ft | 422 kts | 263° |
| 2026-05-06 16:00 | 39.52482 | 0.08904 | 36926 ft | 421 kts | 263° |
| 2026-05-06 16:01 | 39.51976 | 0.01318 | 36924 ft | 422 kts | 263° |
| 2026-05-06 16:01 | 39.51470 | -0.06212 | 36927 ft | 422 kts | 263° |
| 2026-05-06 16:02 | 39.50956 | -0.13799 | 36924 ft | 422 kts | 263° |
| 2026-05-06 16:02 | 39.50437 | -0.21370 | 36925 ft | 422 kts | 263° |
| 2026-05-06 16:03 | 39.49912 | -0.28956 | 36929 ft | 422 kts | 263° |
| 2026-05-06 16:03 | 39.49439 | -0.36549 | 36930 ft | 423 kts | 266° |
| 2026-05-06 16:04 | 39.49743 | -0.44185 | 36928 ft | 426 kts | 274° |
| 2026-05-06 16:04 | 39.51036 | -0.51724 | 36932 ft | 431 kts | 283° |
| 2026-05-06 16:05 | 39.53315 | -0.58942 | 36930 ft | 438 kts | 292° |
| 2026-05-06 16:05 | 39.56297 | -0.65874 | 36929 ft | 440 kts | 294° |
| 2026-05-06 16:06 | 39.59345 | -0.72774 | 36936 ft | 440 kts | 294° |
| 2026-05-06 16:06 | 39.62389 | -0.79672 | 36926 ft | 440 kts | 294° |
| 2026-05-06 16:07 | 39.65434 | -0.86589 | 36921 ft | 441 kts | 294° |
| 2026-05-06 16:07 | 39.68456 | -0.93470 | 36916 ft | 441 kts | 294° |
| 2026-05-06 16:08 | 39.71494 | -1.00408 | 36957 ft | 441 kts | 294° |
| 2026-05-06 16:08 | 39.74524 | -1.07343 | 36959 ft | 441 kts | 294° |
| 2026-05-06 16:09 | 39.77550 | -1.14290 | 36960 ft | 441 kts | 294° |
| 2026-05-06 16:09 | 39.80571 | -1.21250 | 36968 ft | 441 kts | 294° |
| 2026-05-06 16:10 | 39.83599 | -1.28232 | 36951 ft | 443 kts | 294° |
| 2026-05-06 16:10 | 39.86621 | -1.35229 | 36937 ft | 443 kts | 294° |
| 2026-05-06 16:11 | 39.89642 | -1.42223 | 36924 ft | 443 kts | 294° |
| 2026-05-06 16:11 | 39.92638 | -1.49180 | 36916 ft | 443 kts | 294° |
| 2026-05-06 16:12 | 39.95651 | -1.56199 | 36920 ft | 444 kts | 294° |
| 2026-05-06 16:12 | 39.98670 | -1.63242 | 36918 ft | 445 kts | 294° |
| 2026-05-06 16:13 | 40.01695 | -1.70311 | 36914 ft | 445 kts | 294° |
| 2026-05-06 16:13 | 40.04715 | -1.77396 | 36923 ft | 446 kts | 294° |
| 2026-05-06 16:14 | 40.07739 | -1.84494 | 36918 ft | 446 kts | 294° |
| 2026-05-06 16:14 | 40.10753 | -1.91587 | 36935 ft | 446 kts | 294° |
| 2026-05-06 16:15 | 40.13751 | -1.98668 | 36920 ft | 447 kts | 295° |
| 2026-05-06 16:15 | 40.16783 | -2.05810 | 36918 ft | 448 kts | 295° |
| 2026-05-06 16:16 | 40.19815 | -2.12935 | 36917 ft | 448 kts | 295° |
| 2026-05-06 16:16 | 40.22839 | -2.20090 | 36919 ft | 448 kts | 294° |
| 2026-05-06 16:17 | 40.25840 | -2.27256 | 36927 ft | 448 kts | 295° |
| 2026-05-06 16:17 | 40.28819 | -2.34373 | 36927 ft | 449 kts | 295° |
| 2026-05-06 16:18 | 40.31830 | -2.41579 | 36917 ft | 449 kts | 294° |
| 2026-05-06 16:18 | 40.34150 | -2.49122 | 36916 ft | 443 kts | 282° |
| 2026-05-06 16:19 | 40.35098 | -2.57068 | 36919 ft | 439 kts | 270° |
| 2026-05-06 16:19 | 40.34689 | -2.65048 | 36917 ft | 437 kts | 258° |
| 2026-05-06 16:20 | 40.33184 | -2.72790 | 36916 ft | 438 kts | 254° |
| 2026-05-06 16:20 | 40.31530 | -2.80448 | 36914 ft | 439 kts | 254° |
| 2026-05-06 16:21 | 40.29852 | -2.88159 | 36910 ft | 439 kts | 253° |
| 2026-05-06 16:21 | 40.28169 | -2.95867 | 36914 ft | 439 kts | 253° |
| 2026-05-06 16:22 | 40.26482 | -3.03567 | 36909 ft | 439 kts | 253° |
| 2026-05-06 16:22 | 40.24798 | -3.11210 | 36910 ft | 440 kts | 253° |
| 2026-05-06 16:23 | 40.23089 | -3.18918 | 36908 ft | 440 kts | 253° |
| 2026-05-06 16:23 | 40.21373 | -3.26633 | 36899 ft | 440 kts | 253° |
| 2026-05-06 16:24 | 40.19658 | -3.34321 | 36901 ft | 439 kts | 253° |
| 2026-05-06 16:24 | 40.17936 | -3.42015 | 36905 ft | 439 kts | 253° |
| 2026-05-06 16:25 | 40.16220 | -3.49656 | 36909 ft | 440 kts | 253° |
| 2026-05-06 16:25 | 40.14476 | -3.57398 | 36905 ft | 441 kts | 253° |
| 2026-05-06 16:26 | 40.12734 | -3.65101 | 36907 ft | 441 kts | 253° |
| 2026-05-06 16:26 | 40.10986 | -3.72801 | 36899 ft | 441 kts | 253° |
| 2026-05-06 16:27 | 40.09234 | -3.80487 | 36893 ft | 441 kts | 253° |
| 2026-05-06 16:27 | 40.07471 | -3.88191 | 36902 ft | 442 kts | 253° |
| 2026-05-06 16:28 | 40.05703 | -3.95897 | 36894 ft | 443 kts | 253° |
| 2026-05-06 16:28 | 40.03940 | -4.03552 | 36890 ft | 443 kts | 253° |